Nearby METAR Reports

 

ENCN - Kristiansand/Kje, Norway
Distance from station: N 17km
Oppdatert: 28/07/2021 04:20
Overskyet
Overskyet
 Vind fra ØNØ
Vind: ØNØ 11 km/h
Temperatur: 17°C
Duggpunkt: 16°C
Fuktighet: 94%
Barometer: 1005 hPa
Clouds: Overskyet
Visibility: 4 km
Cloud details: Few Clouds 30 m
Hovedsaklig skyet 274 m
Overskyet 488 m
2021/07/28 02:20 ENCN 280220Z AUTO 06006KT 3900 FEW001/// BKN009/// OVC016/// 17/16 Q1005
EKSN - Sindal Airport, Denmark
Distance from station: ØSØ 145km
Oppdatert: 27/07/2021 14:50
NOT Current
Hovedsaklig skyet
Hovedsaklig skyet
 Vind fra SSØ
Vind: SSØ 15 km/h
Temperatur: 25°C
Duggpunkt: 17°C
Fuktighet: 61%
Barometer: 1008 hPa
Clouds: Hovedsaklig skyet
Visibility: 10 km
Cloud details: Few Clouds 945 m
Few Clouds 1737 m
Hovedsaklig skyet 6096 m
2021/07/27 12:50 EKSN 271250Z 16008KT 9999 FEW031 FEW057TCU BKN200 25/17 Q1008
 
EKYT - Alborg, Denmark
Distance from station: SØ 153km
Oppdatert: 28/07/2021 04:20
Klart
Klart
 Vind fra SSV
Vind: SSV 9 km/h
Temperatur: 16°C
Duggpunkt: 16°C
Fuktighet: 100%
Barometer: 1007 hPa
Clouds: Klart
Visibility: 9 km
2021/07/28 02:20 EKYT 280220Z AUTO 20005KT 9000 NCD 16/16 Q1007
ENSN - Skien/Geiterygge, Norway
Distance from station: NØ 153km
Oppdatert: 09/11/2015 09:50
NOT Current
Klart
Klart
 Vind fra SSV
Vind: SSV 19 km/h, Vindkast: 41 km/h
Temperatur: 7°C
Wind Chill: 4°C
Duggpunkt: 3°C
Fuktighet: 76%
Barometer: 1000 hPa
Oversikt: Klart
Visibility: greater than 10 km
2015/11/09 08:50 ENSN 090850Z 20010G22KT 150V240 CAVOK 07/03 Q1000
 
ENZV - Stavanger/Sola(A, Norway
Distance from station: NV 166km
Oppdatert: 28/07/2021 03:50
Lett regn, Hovedsaklig skyet
Lett regn, Hovedsaklig skyet
 Vind fra S
Vind: S 7 km/h
Temperatur: 17°C
Duggpunkt: 16°C
Fuktighet: 94%
Barometer: 1005 hPa
Oversikt: Lett regn
Clouds: Hovedsaklig skyet
Visibility: 10 km
Cloud details: Few Clouds 122 m
Delvis skyet 244 m
Hovedsaklig skyet 1219 m
2021/07/28 01:50 ENZV 280150Z 19004KT 9999 -RA FEW004CB SCT008 BKN040 17/16 Q1005 REDZ RERA
ENNO - Notodden, Norway
Distance from station: NNØ 182km
Oppdatert: 27/07/2021 14:50
NOT Current
Lett regn, Hovedsaklig skyet
Lett regn, Hovedsaklig skyet
 Vind fra NV
Vind: NV 6 km/h
Temperatur: 18°C
Duggpunkt: 17°C
Fuktighet: 94%
Barometer: 1010 hPa
Oversikt: Lett regn
Clouds: Hovedsaklig skyet
Visibility: 9 km
Cloud details: Few Clouds 122 m
Delvis skyet 335 m
Hovedsaklig skyet 610 m
2021/07/27 12:50 ENNO 271250Z 32003KT 9000 -RA FEW004 SCT011 BKN020 18/17 Q1010
 
ENTO - Torp (civ/Nor-Af, Norway
Distance from station: NØ 183km
Oppdatert: 28/07/2021 04:20
Mist, Overskyet
Mist, Overskyet
 Vind fra NNV
Vind: NNV 6 km/h
Temperatur: 17°C
Duggpunkt: 17°C
Fuktighet: 100%
Barometer: 1006 hPa
Oversikt: Mist
Clouds: Overskyet
Visibility: 2 km
Cloud details: Overskyet 122 m
2021/07/28 02:20 ENTO 280220Z AUTO 33003KT 2200 BR VV004 17/17 Q1006
EKKA - Karup (dan-Afb), Denmark
Distance from station: SSØ 209km
Oppdatert: 28/07/2021 04:20
Hovedsaklig skyet
Hovedsaklig skyet
 Vind fra SØ
Vind: SØ 6 km/h
Temperatur: 15°C
Duggpunkt: 14°C
Fuktighet: 94%
Barometer: 1007 hPa
Clouds: Hovedsaklig skyet
Visibility: 5 km
Cloud details: Hovedsaklig skyet 610 m
2021/07/28 02:20 EKKA 280220Z AUTO 13003KT 5000 BKN020/// 15/14 Q1007
 
ENHD - Haugesund/Karmoy, Norway
Distance from station: NV 216km
Oppdatert: 28/07/2021 04:20
Tåke, Klart
Tåke, Klart
 Vind fra ØSØ
Vind: ØSØ 9 km/h
Temperatur: 16°C
Duggpunkt: 15°C
Fuktighet: 94%
Barometer: 1004 hPa
Oversikt: Tåke
Clouds: Klart
Visibility: 1 km
2021/07/28 02:20 ENHD 280220Z AUTO 12005KT 0500 R13/P2000N R31/P2000D FG NCD 16/15 Q1004 RERA
ENRY - Rygge (nor-Afb), Norway
Distance from station: NØ 216km
Oppdatert: 28/07/2021 04:20
Hovedsaklig skyet
Hovedsaklig skyet
 Vind fra ØSØ
Vind: ØSØ 11 km/h
Temperatur: 17°C
Duggpunkt: 17°C
Fuktighet: 100%
Barometer: 1006 hPa
Clouds: Hovedsaklig skyet
Visibility: 8 km
Cloud details: Few Clouds 183 m
Delvis skyet 2195 m
Hovedsaklig skyet 2743 m
2021/07/28 02:20 ENRY 280220Z AUTO 12006KT 8000NDV FEW006/// SCT072/// BKN090/// 17/17 Q1006
 
ESGP - Goteborg/Save (a, Sweden
Distance from station: Ø 230km
Oppdatert: 02/01/2017 11:20
NOT Current
Klart
Klart
 Vind fra calm
Vind: Stille
Temperatur: -2°C
Duggpunkt: -4°C
Fuktighet: 86%
Barometer: 1012 hPa
Clouds: Klart
Visibility: 10 km
2017/01/02 10:20 ESGP 021020Z AUTO 00000KT 9999 NCD M02/M04 Q1012
EKVJ - Stauning Airport, Denmark
Distance from station: S 233km
Oppdatert: 27/07/2021 16:20
NOT Current
Lett regn, Showers, Delvis skyet
Lett regn, Showers, Delvis skyet
 Vind fra VSV
Vind: VSV 22 km/h
Temperatur: 20°C
Duggpunkt: 19°C
Fuktighet: 94%
Barometer: 1008 hPa
Oversikt: Lett regn, Showers
Clouds: Delvis skyet
Visibility: 10 km
Cloud details: Delvis skyet 762 m
2021/07/27 14:20 EKVJ 271420Z 24012KT 9999 -SHRA SCT025CB 20/19 Q1008
 
ENSO - Stord/Soerstokke, Norway
Distance from station: NV 246km
Oppdatert: 27/07/2021 19:20
NOT Current
Delvis skyet
Delvis skyet
 Vind fra NNV
Vind: NNV 9 km/h
Temperatur: 18°C
Duggpunkt: 17°C
Fuktighet: 94%
Barometer: 1007 hPa
Clouds: Delvis skyet
Visibility: 10 km
Cloud details: Few Clouds 427 m
Delvis skyet 975 m
2021/07/27 17:20 ENSO 271720Z 33005KT 9999 FEW014 SCT032 18/17 Q1007
EKAH - Tirstrup (civ/Mi, Denmark
Distance from station: SØ 252km
Oppdatert: 28/07/2021 04:20
Tåkebanker, Klart
Tåkebanker, Klart
 Vind fra SSØ
Vind: SSØ 2 km/h
Oversikt: Patches of Fog
Clouds: Klart
Visibility: 5 km
2021/07/28 02:20 EKAH 280220Z AUTO 15001KT 5000 BCFG NCD 15/// Q1008
 
ESGT - Trollhattan (pvt, Sweden
Distance from station: Ø 255km
Oppdatert: 28/07/2021 04:20
Hovedsaklig skyet
Hovedsaklig skyet
 Vind fra SSØ
Vind: SSØ 9 km/h
Temperatur: 15°C
Duggpunkt: 14°C
Fuktighet: 94%
Barometer: 1007 hPa
Clouds: Hovedsaklig skyet
Visibility: 8 km
Cloud details: Hovedsaklig skyet 305 m
2021/07/28 02:20 ESGT 280220Z AUTO 15005KT 8000 BKN010/// 15/14 Q1007 RERA
ESGG - Goteborg/Landvet, Sweden
Distance from station: Ø 257km
Oppdatert: 28/07/2021 04:20
Few Clouds
Few Clouds
 Vind fra S
Vind: S 15 km/h
Temperatur: 16°C
Duggpunkt: 15°C
Fuktighet: 94%
Barometer: 1008 hPa
Clouds: Few Clouds
Visibility: 8 km
Cloud details: Few Clouds 152 m
2021/07/28 02:20 ESGG 280220Z 17008KT 8000 FEW005 16/15 Q1008
 
EKBI - Billund Airport, Denmark
Distance from station: SSØ 269km
Oppdatert: 28/07/2021 04:20
Mist, Overskyet
Mist, Overskyet
 Vind fra ØSØ
Vind: ØSØ 9 km/h
Temperatur: 15°C
Duggpunkt: 15°C
Fuktighet: 100%
Barometer: 1007 hPa
Oversikt: Mist
Clouds: Overskyet
Visibility: 4 km
Cloud details: Overskyet 2774 m
2021/07/28 02:20 EKBI 280220Z AUTO 11005KT 4100 BR OVC091/// 15/15 Q1007 RERA
EKHN - Horns Rev B Heli, Denmark
Distance from station: S 274km
Oppdatert: 09/08/2016 14:20
NOT Current
Few Clouds
Few Clouds
 Vind fra VNV
Vind: VNV 50 km/h, Vindkast: 72 km/h
Temperatur: 14°C
Duggpunkt: 10°C
Fuktighet: 77%
Barometer: 1018 hPa
Clouds: Few Clouds
Visibility: 10 km
Cloud details: Few Clouds 1158 m
Few Clouds 2438 m
2016/08/09 12:20 EKHN 091220Z AUTO 29027G39KT 270V340 9999NDV FEW038/// FEW080/// 14/10 Q1018
 
ESIB - Satenas (swe-Afb, Sweden
Distance from station: Ø 277km
Oppdatert: 28/07/2021 04:20
Delvis skyet
Delvis skyet
 Vind fra SSØ
Vind: SSØ 6 km/h
Temperatur: 15°C
Duggpunkt: 14°C
Fuktighet: 94%
Barometer: 1007 hPa
Clouds: Delvis skyet
Visibility: 10 km
Cloud details: Delvis skyet 3658 m
2021/07/28 02:20 ESIB 280220Z AUTO 16003KT 9999 SCT120/// 15/14 Q1007
EKHR - Horns Rev B Heli, Denmark
Distance from station: S 282km
Oppdatert: 04/10/2016 06:20
NOT Current
Klart
Klart
 Vind fra Ø
Vind: Ø 4 km/h
Temperatur: 11°C
Duggpunkt: -49°C
Fuktighet: 0%
Barometer: 1038 hPa
Clouds: Klart
Visibility: 10 km
2016/10/04 04:20 EKHR 040420Z AUTO 08002KT 9999NDV NCD 11/M49 Q1038